Time;durP1;ratioP1;P1;durP2;ratioP2;P2;SDS_P1;SDS_P2;PMS_P1;PMS_P2;Temp;Humidity;BMP_temperature;BMP_pressure;BME280_temperature;BME280_humidity;BME280_pressure;Samples;Min_cycle;Max_cycle;Signal;HPM_P1;HPM_P2
2022/10/26 00:05:40;;;;;;;45.17;19.77;;;11.10;99.90;;;;;;21044813;28;20085;-63
2022/10/26 00:15:42;;;;;;;36.03;19.20;;;11.20;99.90;;;;;;21055983;28;20066;-60
2022/10/26 00:25:54;;;;;;;48.13;23.15;;;10.80;99.90;;;;;;21055702;28;20450;-60
2022/10/26 00:35:57;;;;;;;58.45;26.58;;;10.30;99.90;;;;;;21054918;28;20093;-60
2022/10/26 00:46:02;;;;;;;38.15;19.67;;;10.30;99.90;;;;;;21054467;28;20056;-60
2022/10/26 00:56:05;;;;;;;41.45;20.27;;;10.00;99.90;;;;;;21037577;28;20094;-59
2022/10/26 01:06:11;;;;;;;43.28;21.40;;;9.80;99.90;;;;;;21052756;28;20051;-59
2022/10/26 01:16:26;;;;;;;10.18;5.07;;;9.60;99.90;;;;;;21052479;28;20040;-59
2022/10/26 01:27:01;;;;;;;10.35;3.70;;;9.60;99.90;;;;;;21035152;28;20093;-60
2022/10/26 01:37:10;;;;;;;20.45;11.30;;;11.40;99.90;;;;;;21053060;28;20043;-63
2022/10/26 01:47:14;;;;;;;38.53;18.65;;;11.00;99.90;;;;;;21051293;28;20055;-63
2022/10/26 01:57:20;;;;;;;52.05;24.77;;;10.30;99.90;;;;;;21050816;28;20028;-60
2022/10/26 02:07:35;;;;;;;31.02;14.35;;;9.90;99.90;;;;;;21050353;28;20044;-63
2022/10/26 02:17:52;;;;;;;38.92;18.45;;;9.60;99.90;;;;;;21033964;28;20036;-62
2022/10/26 02:27:59;;;;;;;50.15;22.70;;;9.30;99.90;;;;;;21049525;28;20427;-59
2022/10/26 02:38:07;;;;;;;57.13;24.88;;;9.20;99.90;;;;;;21059948;28;20028;-63
2022/10/26 02:48:10;;;;;;;55.45;25.80;;;9.40;99.90;;;;;;21059441;28;20056;-63
2022/10/26 02:58:26;;;;;;;67.38;28.38;;;9.50;99.90;;;;;;21046487;28;20489;-63
2022/10/26 03:08:29;;;;;;;54.53;24.13;;;9.40;99.90;;;;;;21061894;28;20032;-63
2022/10/26 03:18:31;;;;;;;64.93;26.85;;;9.40;99.90;;;;;;21060970;28;20362;-62
2022/10/26 03:28:34;;;;;;;79.05;29.50;;;9.20;99.90;;;;;;21044118;28;20036;-60
2022/10/26 03:38:37;;;;;;;69.55;28.52;;;9.50;99.90;;;;;;21077100;28;20484;-59
2022/10/26 03:48:39;;;;;;;40.22;19.80;;;9.50;99.90;;;;;;21062152;28;20098;-59
2022/10/26 03:58:42;;;;;;;37.13;15.90;;;9.10;99.90;;;;;;21057820;28;20035;-59
2022/10/26 04:08:44;;;;;;;35.10;14.70;;;9.00;99.90;;;;;;21057823;28;20036;-62
2022/10/26 04:18:47;;;;;;;38.13;17.33;;;8.70;99.90;;;;;;21056045;28;20040;-62
2022/10/26 04:28:49;;;;;;;37.15;16.42;;;8.40;99.90;;;;;;21055720;28;20392;-60
2022/10/26 04:38:52;;;;;;;41.78;17.60;;;8.60;99.90;;;;;;21038683;28;20481;-62
2022/10/26 04:48:54;;;;;;;43.70;18.58;;;8.50;99.90;;;;;;21055563;28;20048;-59
2022/10/26 04:58:57;;;;;;;47.63;21.92;;;8.50;99.90;;;;;;21038387;28;20469;-59
2022/10/26 05:09:00;;;;;;;19.10;9.52;;;8.60;99.90;;;;;;21052794;28;20028;-63
2022/10/26 05:19:03;;;;;;;38.83;16.73;;;8.70;99.90;;;;;;21052672;28;20477;-63
2022/10/26 05:29:06;;;;;;;21.27;10.63;;;9.80;99.90;;;;;;21056238;28;20489;-63
2022/10/26 05:39:10;;;;;;;14.05;5.15;;;9.60;99.90;;;;;;21051235;28;20454;-60
2022/10/26 05:49:12;;;;;;;14.30;4.97;;;10.40;99.90;;;;;;21035000;28;20052;-64
2022/10/26 05:59:16;;;;;;;23.75;11.15;;;10.80;99.90;;;;;;21050914;28;20040;-63
2022/10/26 06:09:18;;;;;;;22.67;13.68;;;11.70;99.90;;;;;;21040004;28;20389;-59
2022/10/26 06:19:32;;;;;;;38.80;18.38;;;10.90;99.90;;;;;;21046401;28;20028;-59
2022/10/26 06:29:44;;;;;;;47.40;21.42;;;10.10;99.90;;;;;;21065092;28;20036;-60
2022/10/26 06:39:49;;;;;;;40.88;18.73;;;9.90;99.90;;;;;;21064432;28;20108;-64
2022/10/26 06:49:55;;;;;;;39.50;20.23;;;9.80;99.90;;;;;;21060308;28;20442;-64
2022/10/26 07:00:21;;;;;;;29.08;15.30;;;9.90;99.90;;;;;;21063038;28;20032;-61
2022/10/26 07:10:23;;;;;;;35.08;18.30;;;10.30;99.90;;;;;;21045797;28;20048;-61
2022/10/26 07:20:26;;;;;;;32.45;16.85;;;10.70;99.90;;;;;;21042757;28;20542;-65
2022/10/26 07:30:29;;;;;;;24.27;14.73;;;11.10;99.90;;;;;;21048318;28;20028;-61
2022/10/26 07:40:35;;;;;;;25.55;14.75;;;11.70;99.90;;;;;;21076291;28;20469;-61
2022/10/26 07:50:37;;;;;;;22.20;10.57;;;12.50;99.90;;;;;;20995800;28;20052;-63
2022/10/26 08:00:39;;;;;;;18.70;11.27;;;13.20;99.90;;;;;;20975213;28;20045;-63
2022/10/26 08:10:46;;;;;;;15.10;8.00;;;13.90;99.90;;;;;;20990351;28;20036;-62
2022/10/26 08:20:48;;;;;;;11.73;6.80;;;14.50;99.90;;;;;;20985423;28;20456;-63
2022/10/26 08:30:51;;;;;;;12.70;6.85;;;14.80;99.90;;;;;;20988056;28;20098;-63
2022/10/26 08:40:56;;;;;;;14.48;7.47;;;15.00;99.90;;;;;;20987432;28;20044;-61
2022/10/26 08:51:06;;;;;;;12.60;6.53;;;15.30;99.90;;;;;;20983311;28;20124;-63
2022/10/26 09:01:09;;;;;;;12.27;6.32;;;15.90;99.90;;;;;;20987615;28;20036;-63
2022/10/26 09:11:36;;;;;;;9.88;6.00;;;16.30;99.90;;;;;;20952972;28;20045;-61
2022/10/26 09:21:56;;;;;;;12.10;6.00;;;16.70;99.90;;;;;;20984537;28;20509;-61
2022/10/26 09:32:00;;;;;;;14.40;6.23;;;16.60;99.90;;;;;;20956545;28;20082;-61
2022/10/26 09:42:43;;;;;;;8.82;5.22;;;16.30;99.90;;;;;;20984666;28;20392;-61
2022/10/26 09:52:46;;;;;;;8.75;5.10;;;16.60;99.90;;;;;;21051704;28;20105;-63
2022/10/26 10:02:53;;;;;;;11.45;5.68;;;16.60;99.90;;;;;;21067626;28;20066;-60
2022/10/26 10:12:55;;;;;;;10.77;5.47;;;16.60;99.90;;;;;;21067036;28;20550;-61
2022/10/26 10:23:01;;;;;;;7.00;4.80;;;16.20;99.90;;;;;;21049399;28;20032;-60
2022/10/26 10:33:11;;;;;;;9.18;5.38;;;16.20;99.90;;;;;;21049107;28;20435;-61
2022/10/26 10:43:14;;;;;;;6.60;4.60;;;16.50;99.90;;;;;;21068157;28;20202;-62
2022/10/26 10:53:33;;;;;;;9.55;5.55;;;17.10;99.90;;;;;;21046505;28;20531;-61
2022/10/26 11:03:58;;;;;;;7.00;4.32;;;17.50;99.90;;;;;;21046236;28;20443;-64
2022/10/26 11:14:07;;;;;;;8.82;4.43;;;18.20;99.90;;;;;;21062055;28;20404;-64
2022/10/26 11:24:30;;;;;;;7.50;4.45;;;18.10;99.90;;;;;;21045006;28;20473;-61
2022/10/26 11:35:03;;;;;;;7.22;3.58;;;18.50;99.90;;;;;;21044263;28;20032;-61
2022/10/26 11:45:27;;;;;;;10.10;4.28;;;19.00;99.90;;;;;;21058820;28;20048;-64
2022/10/26 11:55:31;;;;;;;6.70;4.10;;;18.80;99.90;;;;;;21042226;28;20036;-61
2022/10/26 12:05:49;;;;;;;10.70;4.10;;;19.00;99.90;;;;;;21056800;28;20093;-64
2022/10/26 12:16:33;;;;;;;7.90;3.77;;;19.10;99.90;;;;;;21056582;28;20082;-61
2022/10/26 12:26:38;;;;;;;7.55;4.43;;;18.80;99.90;;;;;;20798970;28;20199;-61
2022/10/26 12:36:47;;;;;;;10.45;5.07;;;18.80;99.90;;;;;;20802463;28;20049;-61
2022/10/26 12:46:49;;;;;;;10.00;5.68;;;18.80;99.90;;;;;;20814179;28;20041;-64
2022/10/26 12:57:17;;;;;;;8.40;6.28;;;18.80;99.90;;;;;;20858048;28;20102;-64
2022/10/26 13:07:23;;;;;;;11.77;6.38;;;18.90;99.90;;;;;;20969172;28;20105;-62
2022/10/26 13:17:28;;;;;;;16.08;6.75;;;19.20;99.90;;;;;;20968715;28;20036;-63
2022/10/26 13:27:34;;;;;;;11.57;6.50;;;19.80;99.90;;;;;;20971592;28;20032;-63
2022/10/26 13:37:40;;;;;;;10.35;6.55;;;19.40;99.90;;;;;;20968585;28;20086;-64
2022/10/26 13:47:48;;;;;;;15.65;8.75;;;18.60;99.90;;;;;;21017711;28;20048;-63
2022/10/26 13:58:13;;;;;;;13.05;8.48;;;18.70;99.90;;;;;;21035225;28;20031;-61
2022/10/26 14:08:18;;;;;;;11.88;7.22;;;18.30;99.90;;;;;;21051824;28;20040;-61
2022/10/26 14:18:30;;;;;;;12.65;6.88;;;17.00;99.90;;;;;;21049948;28;20027;-64
2022/10/26 14:28:45;;;;;;;14.18;8.07;;;16.70;99.90;;;;;;21052387;28;20051;-61
2022/10/26 14:38:52;;;;;;;11.15;6.63;;;16.80;99.90;;;;;;21064168;28;20040;-61
2022/10/26 14:49:25;;;;;;;13.40;7.43;;;16.50;99.90;;;;;;21082147;28;20048;-61
2022/10/26 14:59:30;;;;;;;14.13;9.05;;;16.00;99.90;;;;;;21080301;28;20032;-60
2022/10/26 15:09:47;;;;;;;16.38;11.73;;;15.20;99.90;;;;;;21062260;28;20389;-59
2022/10/26 15:19:52;;;;;;;14.93;7.35;;;14.50;99.90;;;;;;21061066;28;20036;-59
2022/10/26 15:30:16;;;;;;;24.13;14.45;;;13.90;99.90;;;;;;21061187;28;20066;-61
2022/10/26 15:40:19;;;;;;;24.45;13.38;;;13.20;99.90;;;;;;21058691;28;20093;-60
2022/10/26 15:50:24;;;;;;;22.00;11.45;;;12.60;99.90;;;;;;20988031;28;20056;-60
2022/10/26 16:00:28;;;;;;;16.90;7.10;;;12.10;99.90;;;;;;20975154;28;20028;-62
2022/10/26 16:10:31;;;;;;;11.65;4.97;;;11.50;99.90;;;;;;20989388;28;20045;-60
2022/10/26 16:20:33;;;;;;;15.77;7.00;;;11.20;99.90;;;;;;21005322;28;20070;-62
2022/10/26 16:30:36;;;;;;;9.98;5.78;;;10.80;99.90;;;;;;20970643;28;20074;-59
2022/10/26 16:40:41;;;;;;;14.88;7.05;;;10.70;99.90;;;;;;20987504;28;20058;-60
2022/10/26 16:50:43;;;;;;;14.50;5.95;;;10.50;99.90;;;;;;20985233;28;20045;-59
2022/10/26 17:00:53;;;;;;;11.18;6.28;;;10.30;99.90;;;;;;20986010;28;20048;-47
2022/10/26 17:11:06;;;;;;;20.67;7.68;;;10.20;99.90;;;;;;20985635;28;20477;-54
2022/10/26 17:21:10;;;;;;;19.55;7.03;;;10.10;99.90;;;;;;20983979;28;20037;-51
2022/10/26 17:31:14;;;;;;;20.10;7.20;;;10.00;99.90;;;;;;20987384;28;20128;-53
2022/10/26 17:41:18;;;;;;;14.77;6.57;;;9.90;99.90;;;;;;20987736;28;20481;-57
2022/10/26 17:51:21;;;;;;;13.63;5.60;;;9.80;99.90;;;;;;21117776;28;20493;-50
2022/10/26 18:01:25;;;;;;;11.40;6.28;;;9.70;99.90;;;;;;21130607;28;20039;-56
2022/10/26 18:11:28;;;;;;;15.77;6.43;;;9.80;99.90;;;;;;21142573;28;20040;-52
2022/10/26 18:21:36;;;;;;;17.27;6.15;;;9.80;99.90;;;;;;21159872;28;20051;-51
2022/10/26 18:31:38;;;;;;;16.10;6.63;;;9.70;99.90;;;;;;21140437;28;20372;-59
2022/10/26 18:41:41;;;;;;;13.30;6.57;;;9.70;99.90;;;;;;21140144;28;20031;-59
2022/10/26 18:51:43;;;;;;;11.35;5.60;;;9.60;99.90;;;;;;21066340;28;20056;-60
2022/10/26 19:01:48;;;;;;;15.55;6.18;;;9.70;99.90;;;;;;21066524;28;20044;-51
2022/10/26 19:11:50;;;;;;;15.48;5.35;;;9.70;99.90;;;;;;21060690;28;20105;-51
2022/10/26 19:21:53;;;;;;;12.10;6.43;;;9.60;99.90;;;;;;21058498;28;20043;-53
2022/10/26 19:31:55;;;;;;;12.35;5.25;;;9.60;99.90;;;;;;21056712;28;20405;-51
2022/10/26 19:41:58;;;;;;;13.73;7.13;;;9.50;99.90;;;;;;21059239;28;20039;-57
2022/10/26 19:52:01;;;;;;;12.57;4.53;;;9.50;99.90;;;;;;21056431;28;20062;-59
2022/10/26 20:02:03;;;;;;;12.85;6.60;;;9.50;99.90;;;;;;21058478;28;20538;-60
2022/10/26 20:12:11;;;;;;;15.32;6.38;;;9.60;99.90;;;;;;21057255;28;20036;-60
2022/10/26 20:22:14;;;;;;;14.60;6.07;;;9.50;99.90;;;;;;21040801;28;20096;-66
2022/10/26 20:32:16;;;;;;;14.52;6.57;;;9.40;99.90;;;;;;21055429;28;20336;-59
2022/10/26 20:42:24;;;;;;;13.90;5.93;;;9.40;99.90;;;;;;21062865;28;20105;-66
2022/10/26 20:52:37;;;;;;;10.25;5.13;;;9.20;99.90;;;;;;21054664;28;20044;-59
2022/10/26 21:02:39;;;;;;;13.98;6.38;;;9.20;99.90;;;;;;21053630;28;20036;-66
2022/10/26 21:12:44;;;;;;;13.77;4.10;;;9.20;99.90;;;;;;21053230;28;20028;-66
2022/10/26 21:22:46;;;;;;;12.98;4.63;;;9.20;99.90;;;;;;21056510;28;20438;-59
2022/10/26 21:32:50;;;;;;;9.55;4.53;;;9.10;99.90;;;;;;21052022;28;20531;-66
2022/10/26 21:42:53;;;;;;;9.32;4.78;;;9.00;99.90;;;;;;21065805;28;20106;-66
2022/10/26 21:52:55;;;;;;;15.02;4.30;;;8.90;99.90;;;;;;21068102;28;20400;-60
2022/10/26 22:02:57;;;;;;;10.63;4.28;;;8.90;99.90;;;;;;21067747;28;20465;-66
2022/10/26 22:13:00;;;;;;;11.02;3.85;;;8.90;99.90;;;;;;21070816;28;20039;-59
2022/10/26 22:23:03;;;;;;;8.02;3.90;;;8.90;99.90;;;;;;21050121;28;20028;-66
2022/10/26 22:33:05;;;;;;;9.38;3.15;;;8.80;99.90;;;;;;21066670;28;20044;-59
2022/10/26 22:43:07;;;;;;;6.03;3.75;;;8.90;99.90;;;;;;21072406;28;20048;-66
2022/10/26 22:53:10;;;;;;;10.23;3.63;;;8.90;99.90;;;;;;21062947;28;20542;-59
2022/10/26 23:03:12;;;;;;;12.43;3.75;;;9.00;99.90;;;;;;21063044;28;20036;-59
2022/10/26 23:13:15;;;;;;;8.25;3.47;;;9.60;99.90;;;;;;21066750;28;20040;-59
2022/10/26 23:23:18;;;;;;;6.72;3.20;;;10.10;99.90;;;;;;21061227;28;20101;-60
2022/10/26 23:33:20;;;;;;;6.70;2.80;;;9.90;99.90;;;;;;21060622;28;20073;-66
2022/10/26 23:43:24;;;;;;;5.13;2.17;;;9.70;99.90;;;;;;21043602;28;20136;-68
2022/10/26 23:53:27;;;;;;;11.55;2.72;;;9.30;99.90;;;;;;21058770;28;20035;-61
